sensor_id;sensor_type;location;lat;lon;timestamp;temperature;humidity
11426;DHT22;5769;47.998;7.788;2023-06-14T00:00:02;20.90;80.70
11426;DHT22;5769;47.998;7.788;2023-06-14T00:02:30;20.90;80.70
11426;DHT22;5769;47.998;7.788;2023-06-14T00:04:56;21.00;80.70
11426;DHT22;5769;47.998;7.788;2023-06-14T00:07:34;21.00;80.70
11426;DHT22;5769;47.998;7.788;2023-06-14T00:10:02;21.00;80.80
11426;DHT22;5769;47.998;7.788;2023-06-14T00:12:30;20.90;80.70
11426;DHT22;5769;47.998;7.788;2023-06-14T00:14:57;21.00;80.80
11426;DHT22;5769;47.998;7.788;2023-06-14T00:17:24;21.00;80.80
11426;DHT22;5769;47.998;7.788;2023-06-14T00:19:55;21.00;80.80
11426;DHT22;5769;47.998;7.788;2023-06-14T00:22:23;20.90;80.80
11426;DHT22;5769;47.998;7.788;2023-06-14T00:24:50;20.90;80.80
11426;DHT22;5769;47.998;7.788;2023-06-14T00:27:18;21.00;80.90
11426;DHT22;5769;47.998;7.788;2023-06-14T00:29:45;20.90;80.80
11426;DHT22;5769;47.998;7.788;2023-06-14T00:32:12;21.00;80.90
11426;DHT22;5769;47.998;7.788;2023-06-14T00:34:38;20.90;80.80
11426;DHT22;5769;47.998;7.788;2023-06-14T00:37:05;21.00;80.90
11426;DHT22;5769;47.998;7.788;2023-06-14T00:39:32;20.90;80.80
11426;DHT22;5769;47.998;7.788;2023-06-14T00:41:58;20.90;80.80
11426;DHT22;5769;47.998;7.788;2023-06-14T00:44:26;21.00;80.90
11426;DHT22;5769;47.998;7.788;2023-06-14T00:46:53;20.90;80.80
11426;DHT22;5769;47.998;7.788;2023-06-14T00:49:20;20.90;80.80
11426;DHT22;5769;47.998;7.788;2023-06-14T00:51:47;20.90;80.80
11426;DHT22;5769;47.998;7.788;2023-06-14T00:54:13;20.90;80.70
11426;DHT22;5769;47.998;7.788;2023-06-14T00:56:40;20.90;80.50
11426;DHT22;5769;47.998;7.788;2023-06-14T00:59:08;20.90;80.30
11426;DHT22;5769;47.998;7.788;2023-06-14T01:01:37;20.90;80.10
11426;DHT22;5769;47.998;7.788;2023-06-14T01:04:04;21.00;79.90
11426;DHT22;5769;47.998;7.788;2023-06-14T01:06:38;20.90;79.40
11426;DHT22;5769;47.998;7.788;2023-06-14T01:09:13;21.00;79.30
11426;DHT22;5769;47.998;7.788;2023-06-14T01:11:47;20.90;78.70
11426;DHT22;5769;47.998;7.788;2023-06-14T01:14:16;20.90;78.30
11426;DHT22;5769;47.998;7.788;2023-06-14T01:16:46;20.90;77.80
11426;DHT22;5769;47.998;7.788;2023-06-14T01:19:16;20.90;77.50
11426;DHT22;5769;47.998;7.788;2023-06-14T01:21:43;20.90;77.10
11426;DHT22;5769;47.998;7.788;2023-06-14T01:24:11;20.90;76.80
11426;DHT22;5769;47.998;7.788;2023-06-14T01:26:38;21.00;76.80
11426;DHT22;5769;47.998;7.788;2023-06-14T01:29:11;21.00;76.70
11426;DHT22;5769;47.998;7.788;2023-06-14T01:31:42;20.90;76.60
11426;DHT22;5769;47.998;7.788;2023-06-14T01:34:09;20.90;76.40
11426;DHT22;5769;47.998;7.788;2023-06-14T01:36:36;20.90;76.30
11426;DHT22;5769;47.998;7.788;2023-06-14T01:39:04;20.90;76.40
11426;DHT22;5769;47.998;7.788;2023-06-14T01:41:34;20.90;76.40
11426;DHT22;5769;47.998;7.788;2023-06-14T01:44:02;21.00;76.50
11426;DHT22;5769;47.998;7.788;2023-06-14T01:46:28;20.90;76.30
11426;DHT22;5769;47.998;7.788;2023-06-14T01:48:55;20.90;76.30
11426;DHT22;5769;47.998;7.788;2023-06-14T01:51:22;20.90;76.30
11426;DHT22;5769;47.998;7.788;2023-06-14T01:53:48;20.90;76.40
11426;DHT22;5769;47.998;7.788;2023-06-14T01:56:15;20.90;76.30
11426;DHT22;5769;47.998;7.788;2023-06-14T01:58:43;20.90;76.30
11426;DHT22;5769;47.998;7.788;2023-06-14T02:01:10;20.90;76.30
11426;DHT22;5769;47.998;7.788;2023-06-14T02:03:37;20.90;76.40
11426;DHT22;5769;47.998;7.788;2023-06-14T02:06:04;20.90;76.30
11426;DHT22;5769;47.998;7.788;2023-06-14T02:08:31;20.90;76.30
11426;DHT22;5769;47.998;7.788;2023-06-14T02:10:57;20.90;76.40
11426;DHT22;5769;47.998;7.788;2023-06-14T02:13:24;20.90;76.50
11426;DHT22;5769;47.998;7.788;2023-06-14T02:15:52;20.90;76.30
11426;DHT22;5769;47.998;7.788;2023-06-14T02:18:19;20.90;76.50
11426;DHT22;5769;47.998;7.788;2023-06-14T02:20:46;20.90;76.50
11426;DHT22;5769;47.998;7.788;2023-06-14T02:23:13;20.90;76.60
11426;DHT22;5769;47.998;7.788;2023-06-14T02:25:40;20.90;76.40
11426;DHT22;5769;47.998;7.788;2023-06-14T02:28:08;20.90;76.50
11426;DHT22;5769;47.998;7.788;2023-06-14T02:30:35;20.90;76.40
11426;DHT22;5769;47.998;7.788;2023-06-14T02:33:03;20.90;76.40
11426;DHT22;5769;47.998;7.788;2023-06-14T02:35:30;20.90;76.50
11426;DHT22;5769;47.998;7.788;2023-06-14T02:37:57;20.90;76.50
11426;DHT22;5769;47.998;7.788;2023-06-14T02:40:24;20.90;76.30
11426;DHT22;5769;47.998;7.788;2023-06-14T02:42:50;20.90;76.00
11426;DHT22;5769;47.998;7.788;2023-06-14T02:45:17;20.90;75.90
11426;DHT22;5769;47.998;7.788;2023-06-14T02:47:45;20.90;75.70
11426;DHT22;5769;47.998;7.788;2023-06-14T02:50:13;20.90;75.60
11426;DHT22;5769;47.998;7.788;2023-06-14T02:52:41;20.90;75.30
11426;DHT22;5769;47.998;7.788;2023-06-14T02:55:10;20.90;75.00
11426;DHT22;5769;47.998;7.788;2023-06-14T02:57:36;20.90;74.90
11426;DHT22;5769;47.998;7.788;2023-06-14T03:00:04;20.90;75.40
11426;DHT22;5769;47.998;7.788;2023-06-14T03:02:35;20.90;74.60
11426;DHT22;5769;47.998;7.788;2023-06-14T03:05:01;20.90;74.20
11426;DHT22;5769;47.998;7.788;2023-06-14T03:07:30;20.90;74.00
11426;DHT22;5769;47.998;7.788;2023-06-14T03:09:56;20.90;73.80
11426;DHT22;5769;47.998;7.788;2023-06-14T03:12:23;20.90;73.80
11426;DHT22;5769;47.998;7.788;2023-06-14T03:14:50;20.90;73.80
11426;DHT22;5769;47.998;7.788;2023-06-14T03:17:17;20.90;73.80
11426;DHT22;5769;47.998;7.788;2023-06-14T03:19:44;20.90;73.80
11426;DHT22;5769;47.998;7.788;2023-06-14T03:22:11;20.90;73.80
11426;DHT22;5769;47.998;7.788;2023-06-14T03:24:39;20.90;73.70
11426;DHT22;5769;47.998;7.788;2023-06-14T03:27:06;20.90;73.60
11426;DHT22;5769;47.998;7.788;2023-06-14T03:29:35;20.90;73.60
11426;DHT22;5769;47.998;7.788;2023-06-14T03:32:03;20.90;73.60
11426;DHT22;5769;47.998;7.788;2023-06-14T03:34:29;20.90;73.80
11426;DHT22;5769;47.998;7.788;2023-06-14T03:36:56;20.90;73.70
11426;DHT22;5769;47.998;7.788;2023-06-14T03:39:23;20.90;73.80
11426;DHT22;5769;47.998;7.788;2023-06-14T03:41:51;20.90;73.90
11426;DHT22;5769;47.998;7.788;2023-06-14T03:44:18;20.90;74.00
11426;DHT22;5769;47.998;7.788;2023-06-14T03:46:45;20.90;74.00
11426;DHT22;5769;47.998;7.788;2023-06-14T03:49:12;20.90;74.10
11426;DHT22;5769;47.998;7.788;2023-06-14T03:51:38;20.90;74.10
11426;DHT22;5769;47.998;7.788;2023-06-14T03:54:06;20.90;74.20
11426;DHT22;5769;47.998;7.788;2023-06-14T03:56:33;20.90;74.20
11426;DHT22;5769;47.998;7.788;2023-06-14T03:59:01;20.90;74.30
11426;DHT22;5769;47.998;7.788;2023-06-14T04:01:28;20.90;74.30
11426;DHT22;5769;47.998;7.788;2023-06-14T04:03:55;20.90;74.40
11426;DHT22;5769;47.998;7.788;2023-06-14T04:06:23;20.90;74.40
11426;DHT22;5769;47.998;7.788;2023-06-14T04:08:50;20.90;74.40
11426;DHT22;5769;47.998;7.788;2023-06-14T04:11:17;20.90;74.40
11426;DHT22;5769;47.998;7.788;2023-06-14T04:13:45;20.90;74.40
11426;DHT22;5769;47.998;7.788;2023-06-14T04:16:13;20.90;74.30
11426;DHT22;5769;47.998;7.788;2023-06-14T04:18:40;20.90;74.20
11426;DHT22;5769;47.998;7.788;2023-06-14T04:21:07;20.90;74.20
11426;DHT22;5769;47.998;7.788;2023-06-14T04:23:33;20.90;74.00
11426;DHT22;5769;47.998;7.788;2023-06-14T04:26:00;20.90;73.80
11426;DHT22;5769;47.998;7.788;2023-06-14T04:28:28;20.90;73.70
11426;DHT22;5769;47.998;7.788;2023-06-14T04:30:55;20.90;73.70
11426;DHT22;5769;47.998;7.788;2023-06-14T04:33:23;20.90;73.40
11426;DHT22;5769;47.998;7.788;2023-06-14T04:35:51;20.90;73.30
11426;DHT22;5769;47.998;7.788;2023-06-14T04:38:19;20.90;73.20
11426;DHT22;5769;47.998;7.788;2023-06-14T04:40:50;20.90;73.10
11426;DHT22;5769;47.998;7.788;2023-06-14T04:43:18;20.90;73.10
11426;DHT22;5769;47.998;7.788;2023-06-14T04:45:50;20.90;73.00
11426;DHT22;5769;47.998;7.788;2023-06-14T04:48:17;20.90;73.00
11426;DHT22;5769;47.998;7.788;2023-06-14T04:50:46;20.90;73.00
11426;DHT22;5769;47.998;7.788;2023-06-14T04:53:13;20.90;72.80
11426;DHT22;5769;47.998;7.788;2023-06-14T04:55:39;20.90;72.70
11426;DHT22;5769;47.998;7.788;2023-06-14T04:58:10;20.90;72.60
11426;DHT22;5769;47.998;7.788;2023-06-14T05:00:38;20.90;72.50
11426;DHT22;5769;47.998;7.788;2023-06-14T05:03:04;20.90;72.50
11426;DHT22;5769;47.998;7.788;2023-06-14T05:05:33;20.90;72.50
11426;DHT22;5769;47.998;7.788;2023-06-14T05:08:01;20.90;72.60
11426;DHT22;5769;47.998;7.788;2023-06-14T05:10:27;20.90;72.60
11426;DHT22;5769;47.998;7.788;2023-06-14T05:12:54;20.90;72.80
11426;DHT22;5769;47.998;7.788;2023-06-14T05:15:21;20.90;72.80
11426;DHT22;5769;47.998;7.788;2023-06-14T05:17:50;20.90;72.80
11426;DHT22;5769;47.998;7.788;2023-06-14T05:20:20;20.90;72.80
11426;DHT22;5769;47.998;7.788;2023-06-14T05:22:48;20.90;72.90
11426;DHT22;5769;47.998;7.788;2023-06-14T05:25:16;20.90;73.00
11426;DHT22;5769;47.998;7.788;2023-06-14T05:27:43;20.90;72.90
11426;DHT22;5769;47.998;7.788;2023-06-14T05:30:11;20.90;72.90
11426;DHT22;5769;47.998;7.788;2023-06-14T05:32:38;20.90;73.00
11426;DHT22;5769;47.998;7.788;2023-06-14T05:35:05;20.90;73.00
11426;DHT22;5769;47.998;7.788;2023-06-14T05:37:32;20.90;73.00
11426;DHT22;5769;47.998;7.788;2023-06-14T05:39:59;20.90;73.00
11426;DHT22;5769;47.998;7.788;2023-06-14T05:42:27;20.90;73.10
11426;DHT22;5769;47.998;7.788;2023-06-14T05:44:53;20.90;73.10
11426;DHT22;5769;47.998;7.788;2023-06-14T05:47:21;20.90;73.10
11426;DHT22;5769;47.998;7.788;2023-06-14T05:49:47;20.90;73.10
11426;DHT22;5769;47.998;7.788;2023-06-14T05:52:14;20.90;73.20
11426;DHT22;5769;47.998;7.788;2023-06-14T05:54:41;20.90;73.20
11426;DHT22;5769;47.998;7.788;2023-06-14T05:57:08;20.90;73.10
11426;DHT22;5769;47.998;7.788;2023-06-14T05:59:37;20.90;73.20
11426;DHT22;5769;47.998;7.788;2023-06-14T06:02:04;20.90;73.20
11426;DHT22;5769;47.998;7.788;2023-06-14T06:04:31;20.90;73.20
11426;DHT22;5769;47.998;7.788;2023-06-14T06:06:58;20.90;73.20
11426;DHT22;5769;47.998;7.788;2023-06-14T06:09:24;20.90;73.10
11426;DHT22;5769;47.998;7.788;2023-06-14T06:11:51;20.90;73.10
11426;DHT22;5769;47.998;7.788;2023-06-14T06:14:18;20.90;73.00
11426;DHT22;5769;47.998;7.788;2023-06-14T06:16:46;20.90;73.00
11426;DHT22;5769;47.998;7.788;2023-06-14T06:19:13;20.90;73.00
11426;DHT22;5769;47.998;7.788;2023-06-14T06:21:39;20.90;73.00
11426;DHT22;5769;47.998;7.788;2023-06-14T06:24:06;20.90;72.90
11426;DHT22;5769;47.998;7.788;2023-06-14T06:26:33;20.90;72.80
11426;DHT22;5769;47.998;7.788;2023-06-14T06:28:59;20.90;72.50
11426;DHT22;5769;47.998;7.788;2023-06-14T06:31:26;20.90;72.30
11426;DHT22;5769;47.998;7.788;2023-06-14T06:33:55;20.90;72.20
11426;DHT22;5769;47.998;7.788;2023-06-14T06:36:22;20.90;72.20
11426;DHT22;5769;47.998;7.788;2023-06-14T06:38:48;20.90;72.10
11426;DHT22;5769;47.998;7.788;2023-06-14T06:41:15;20.90;72.10
11426;DHT22;5769;47.998;7.788;2023-06-14T06:43:42;20.90;71.90
11426;DHT22;5769;47.998;7.788;2023-06-14T06:46:09;20.90;71.90
11426;DHT22;5769;47.998;7.788;2023-06-14T06:48:36;20.90;71.90
11426;DHT22;5769;47.998;7.788;2023-06-14T06:51:04;20.90;71.80
11426;DHT22;5769;47.998;7.788;2023-06-14T06:53:31;20.90;71.90
11426;DHT22;5769;47.998;7.788;2023-06-14T06:55:57;20.90;71.90
11426;DHT22;5769;47.998;7.788;2023-06-14T06:58:24;20.90;72.00
11426;DHT22;5769;47.998;7.788;2023-06-14T07:00:51;20.90;72.10
11426;DHT22;5769;47.998;7.788;2023-06-14T07:03:17;20.90;72.20
11426;DHT22;5769;47.998;7.788;2023-06-14T07:05:45;20.90;72.30
11426;DHT22;5769;47.998;7.788;2023-06-14T07:08:13;20.90;72.40
11426;DHT22;5769;47.998;7.788;2023-06-14T07:10:39;20.90;72.50
11426;DHT22;5769;47.998;7.788;2023-06-14T07:13:06;20.90;72.60
11426;DHT22;5769;47.998;7.788;2023-06-14T07:15:33;20.90;72.70
11426;DHT22;5769;47.998;7.788;2023-06-14T07:18:00;20.90;72.70
11426;DHT22;5769;47.998;7.788;2023-06-14T07:20:26;20.90;72.80
11426;DHT22;5769;47.998;7.788;2023-06-14T07:22:53;20.90;72.80
11426;DHT22;5769;47.998;7.788;2023-06-14T07:25:21;20.90;72.80
11426;DHT22;5769;47.998;7.788;2023-06-14T07:27:48;20.90;72.90
11426;DHT22;5769;47.998;7.788;2023-06-14T07:30:15;20.90;73.00
11426;DHT22;5769;47.998;7.788;2023-06-14T07:32:42;20.90;73.10
11426;DHT22;5769;47.998;7.788;2023-06-14T07:35:08;20.90;73.20
11426;DHT22;5769;47.998;7.788;2023-06-14T07:37:35;20.90;73.30
11426;DHT22;5769;47.998;7.788;2023-06-14T07:40:03;20.90;73.40
11426;DHT22;5769;47.998;7.788;2023-06-14T07:42:33;20.90;73.40
11426;DHT22;5769;47.998;7.788;2023-06-14T07:45:01;20.90;73.40
11426;DHT22;5769;47.998;7.788;2023-06-14T07:47:27;20.90;73.50
11426;DHT22;5769;47.998;7.788;2023-06-14T07:49:54;20.90;73.50
11426;DHT22;5769;47.998;7.788;2023-06-14T07:52:21;20.90;73.50
11426;DHT22;5769;47.998;7.788;2023-06-14T07:54:48;20.90;73.40
11426;DHT22;5769;47.998;7.788;2023-06-14T07:57:14;20.90;73.30
11426;DHT22;5769;47.998;7.788;2023-06-14T07:59:42;20.90;73.30
11426;DHT22;5769;47.998;7.788;2023-06-14T08:02:09;20.90;73.30
11426;DHT22;5769;47.998;7.788;2023-06-14T08:04:36;20.90;73.30
11426;DHT22;5769;47.998;7.788;2023-06-14T08:07:03;20.90;73.40
11426;DHT22;5769;47.998;7.788;2023-06-14T08:09:30;20.90;73.40
11426;DHT22;5769;47.998;7.788;2023-06-14T08:11:57;20.90;73.40
11426;DHT22;5769;47.998;7.788;2023-06-14T08:14:24;20.90;73.50
11426;DHT22;5769;47.998;7.788;2023-06-14T08:16:52;20.90;73.50
11426;DHT22;5769;47.998;7.788;2023-06-14T08:19:19;20.90;73.50
11426;DHT22;5769;47.998;7.788;2023-06-14T08:21:45;20.90;73.60
11426;DHT22;5769;47.998;7.788;2023-06-14T08:24:12;20.90;73.60
11426;DHT22;5769;47.998;7.788;2023-06-14T08:26:39;20.90;73.70
11426;DHT22;5769;47.998;7.788;2023-06-14T08:29:06;20.90;73.70
11426;DHT22;5769;47.998;7.788;2023-06-14T08:31:33;20.90;73.80
11426;DHT22;5769;47.998;7.788;2023-06-14T08:34:01;20.90;73.80
11426;DHT22;5769;47.998;7.788;2023-06-14T08:36:28;20.90;73.80
11426;DHT22;5769;47.998;7.788;2023-06-14T08:38:55;20.90;73.90
11426;DHT22;5769;47.998;7.788;2023-06-14T08:41:22;20.90;73.90
11426;DHT22;5769;47.998;7.788;2023-06-14T08:43:50;20.90;74.00
11426;DHT22;5769;47.998;7.788;2023-06-14T08:46:17;20.90;74.10
11426;DHT22;5769;47.998;7.788;2023-06-14T08:48:46;20.90;74.10
11426;DHT22;5769;47.998;7.788;2023-06-14T08:51:16;20.90;74.20
11426;DHT22;5769;47.998;7.788;2023-06-14T08:53:45;20.90;74.20
11426;DHT22;5769;47.998;7.788;2023-06-14T08:56:12;20.90;74.20
11426;DHT22;5769;47.998;7.788;2023-06-14T08:58:42;20.90;74.30
11426;DHT22;5769;47.998;7.788;2023-06-14T09:01:10;20.90;74.30
11426;DHT22;5769;47.998;7.788;2023-06-14T09:03:40;20.90;74.40
11426;DHT22;5769;47.998;7.788;2023-06-14T09:06:07;20.90;74.40
11426;DHT22;5769;47.998;7.788;2023-06-14T09:08:42;20.90;74.50
11426;DHT22;5769;47.998;7.788;2023-06-14T09:11:10;20.90;74.50
11426;DHT22;5769;47.998;7.788;2023-06-14T09:13:37;20.90;74.60
11426;DHT22;5769;47.998;7.788;2023-06-14T09:16:05;20.90;74.60
11426;DHT22;5769;47.998;7.788;2023-06-14T09:18:35;20.90;74.60
11426;DHT22;5769;47.998;7.788;2023-06-14T09:21:02;20.90;74.70
11426;DHT22;5769;47.998;7.788;2023-06-14T09:23:29;20.90;74.70
11426;DHT22;5769;47.998;7.788;2023-06-14T09:26:01;20.90;74.80
11426;DHT22;5769;47.998;7.788;2023-06-14T09:28:28;20.90;74.80
11426;DHT22;5769;47.998;7.788;2023-06-14T09:30:54;20.90;74.90
11426;DHT22;5769;47.998;7.788;2023-06-14T09:33:21;20.90;74.90
11426;DHT22;5769;47.998;7.788;2023-06-14T09:35:51;20.90;74.90
11426;DHT22;5769;47.998;7.788;2023-06-14T09:38:18;20.90;74.90
11426;DHT22;5769;47.998;7.788;2023-06-14T09:40:44;20.90;74.90
11426;DHT22;5769;47.998;7.788;2023-06-14T09:43:12;20.90;74.90
11426;DHT22;5769;47.998;7.788;2023-06-14T09:45:40;20.90;74.90
11426;DHT22;5769;47.998;7.788;2023-06-14T09:48:07;20.90;74.90
11426;DHT22;5769;47.998;7.788;2023-06-14T09:50:34;20.90;74.90
11426;DHT22;5769;47.998;7.788;2023-06-14T09:53:03;20.90;74.90
11426;DHT22;5769;47.998;7.788;2023-06-14T09:55:34;20.90;74.90
11426;DHT22;5769;47.998;7.788;2023-06-14T09:58:04;20.90;74.90
11426;DHT22;5769;47.998;7.788;2023-06-14T10:00:34;20.90;74.90
11426;DHT22;5769;47.998;7.788;2023-06-14T10:03:06;20.90;74.90
11426;DHT22;5769;47.998;7.788;2023-06-14T10:05:36;20.90;75.00
11426;DHT22;5769;47.998;7.788;2023-06-14T10:08:07;20.90;75.00
11426;DHT22;5769;47.998;7.788;2023-06-14T10:10:34;20.90;75.00
11426;DHT22;5769;47.998;7.788;2023-06-14T10:13:01;20.90;75.00
11426;DHT22;5769;47.998;7.788;2023-06-14T10:15:35;20.90;75.70
11426;DHT22;5769;47.998;7.788;2023-06-14T10:18:10;20.90;75.00
11426;DHT22;5769;47.998;7.788;2023-06-14T10:20:51;20.90;75.10
11426;DHT22;5769;47.998;7.788;2023-06-14T10:23:23;20.90;75.10
11426;DHT22;5769;47.998;7.788;2023-06-14T10:25:50;20.90;75.50
11426;DHT22;5769;47.998;7.788;2023-06-14T10:28:22;20.90;75.10
11426;DHT22;5769;47.998;7.788;2023-06-14T10:31:07;20.90;75.10
11426;DHT22;5769;47.998;7.788;2023-06-14T10:33:35;20.90;75.20
11426;DHT22;5769;47.998;7.788;2023-06-14T10:36:25;20.90;75.20
11426;DHT22;5769;47.998;7.788;2023-06-14T10:39:05;20.90;75.10
11426;DHT22;5769;47.998;7.788;2023-06-14T10:41:35;20.90;75.20
11426;DHT22;5769;47.998;7.788;2023-06-14T10:46:54;20.90;75.20
11426;DHT22;5769;47.998;7.788;2023-06-14T10:49:37;20.90;75.20
11426;DHT22;5769;47.998;7.788;2023-06-14T10:52:08;20.90;75.20
11426;DHT22;5769;47.998;7.788;2023-06-14T10:55:05;20.90;75.20
11426;DHT22;5769;47.998;7.788;2023-06-14T10:57:35;20.90;75.20
11426;DHT22;5769;47.998;7.788;2023-06-14T11:00:03;20.90;75.30
11426;DHT22;5769;47.998;7.788;2023-06-14T11:03:05;20.90;75.30
11426;DHT22;5769;47.998;7.788;2023-06-14T11:05:48;20.90;75.30
11426;DHT22;5769;47.998;7.788;2023-06-14T11:11:07;20.90;75.30
11426;DHT22;5769;47.998;7.788;2023-06-14T11:13:36;20.90;75.20
11426;DHT22;5769;47.998;7.788;2023-06-14T11:16:10;20.90;75.20
11426;DHT22;5769;47.998;7.788;2023-06-14T11:18:38;21.00;75.20
11426;DHT22;5769;47.998;7.788;2023-06-14T11:21:05;20.90;75.20
11426;DHT22;5769;47.998;7.788;2023-06-14T11:23:34;20.90;75.10
11426;DHT22;5769;47.998;7.788;2023-06-14T11:26:00;20.90;75.10
11426;DHT22;5769;47.998;7.788;2023-06-14T11:28:36;20.90;75.10
11426;DHT22;5769;47.998;7.788;2023-06-14T11:31:03;20.90;75.10
11426;DHT22;5769;47.998;7.788;2023-06-14T11:33:30;20.90;75.10
11426;DHT22;5769;47.998;7.788;2023-06-14T11:36:01;20.90;75.10
11426;DHT22;5769;47.998;7.788;2023-06-14T11:38:27;20.90;75.20
11426;DHT22;5769;47.998;7.788;2023-06-14T11:40:58;20.90;75.20
11426;DHT22;5769;47.998;7.788;2023-06-14T11:43:25;20.90;75.20
11426;DHT22;5769;47.998;7.788;2023-06-14T11:45:52;20.90;75.20
11426;DHT22;5769;47.998;7.788;2023-06-14T11:48:19;20.90;75.20
11426;DHT22;5769;47.998;7.788;2023-06-14T11:50:49;21.00;75.30
11426;DHT22;5769;47.998;7.788;2023-06-14T11:53:18;20.90;75.20
11426;DHT22;5769;47.998;7.788;2023-06-14T11:55:44;20.90;75.20
11426;DHT22;5769;47.998;7.788;2023-06-14T11:58:13;20.90;75.20
11426;DHT22;5769;47.998;7.788;2023-06-14T12:00:40;20.90;75.20
11426;DHT22;5769;47.998;7.788;2023-06-14T12:03:07;20.90;75.30
11426;DHT22;5769;47.998;7.788;2023-06-14T12:05:34;20.90;75.30
11426;DHT22;5769;47.998;7.788;2023-06-14T12:08:02;20.90;75.30
11426;DHT22;5769;47.998;7.788;2023-06-14T12:10:39;20.90;75.30
11426;DHT22;5769;47.998;7.788;2023-06-14T12:13:06;20.90;75.30
11426;DHT22;5769;47.998;7.788;2023-06-14T12:15:33;20.90;75.40
11426;DHT22;5769;47.998;7.788;2023-06-14T12:17:59;20.90;75.40
11426;DHT22;5769;47.998;7.788;2023-06-14T12:20:29;20.90;75.40
11426;DHT22;5769;47.998;7.788;2023-06-14T12:22:58;21.00;75.40
11426;DHT22;5769;47.998;7.788;2023-06-14T12:25:27;20.90;75.40
11426;DHT22;5769;47.998;7.788;2023-06-14T12:27:58;20.90;75.40
11426;DHT22;5769;47.998;7.788;2023-06-14T12:30:25;20.90;75.40
11426;DHT22;5769;47.998;7.788;2023-06-14T12:32:52;20.90;75.40
11426;DHT22;5769;47.998;7.788;2023-06-14T12:35:18;20.90;75.40
11426;DHT22;5769;47.998;7.788;2023-06-14T12:37:45;20.90;75.50
11426;DHT22;5769;47.998;7.788;2023-06-14T12:40:12;20.90;75.50
11426;DHT22;5769;47.998;7.788;2023-06-14T12:42:39;20.90;75.50
11426;DHT22;5769;47.998;7.788;2023-06-14T12:45:08;20.90;75.50
11426;DHT22;5769;47.998;7.788;2023-06-14T12:47:35;20.90;75.50
11426;DHT22;5769;47.998;7.788;2023-06-14T12:50:03;20.90;75.50
11426;DHT22;5769;47.998;7.788;2023-06-14T12:52:29;20.90;75.60
11426;DHT22;5769;47.998;7.788;2023-06-14T12:54:56;20.90;75.60
11426;DHT22;5769;47.998;7.788;2023-06-14T12:57:23;20.90;75.60
11426;DHT22;5769;47.998;7.788;2023-06-14T12:59:50;20.90;75.60
11426;DHT22;5769;47.998;7.788;2023-06-14T13:02:19;20.90;75.50
11426;DHT22;5769;47.998;7.788;2023-06-14T13:04:47;20.90;75.50
11426;DHT22;5769;47.998;7.788;2023-06-14T13:07:14;20.90;75.50
11426;DHT22;5769;47.998;7.788;2023-06-14T13:09:41;20.90;75.50
11426;DHT22;5769;47.998;7.788;2023-06-14T13:12:09;20.90;75.50
11426;DHT22;5769;47.998;7.788;2023-06-14T13:14:37;20.90;75.60
11426;DHT22;5769;47.998;7.788;2023-06-14T13:17:04;20.90;75.50
11426;DHT22;5769;47.998;7.788;2023-06-14T13:19:32;20.90;75.50
11426;DHT22;5769;47.998;7.788;2023-06-14T13:21:59;20.90;75.50
11426;DHT22;5769;47.998;7.788;2023-06-14T13:24:26;20.90;75.50
11426;DHT22;5769;47.998;7.788;2023-06-14T13:26:53;20.90;75.50
11426;DHT22;5769;47.998;7.788;2023-06-14T13:29:20;20.90;75.40
11426;DHT22;5769;47.998;7.788;2023-06-14T13:31:47;20.90;75.40
11426;DHT22;5769;47.998;7.788;2023-06-14T13:34:14;21.00;75.50
11426;DHT22;5769;47.998;7.788;2023-06-14T13:36:42;21.00;75.40
11426;DHT22;5769;47.998;7.788;2023-06-14T13:39:08;20.90;75.40
11426;DHT22;5769;47.998;7.788;2023-06-14T13:41:36;20.90;75.30
11426;DHT22;5769;47.998;7.788;2023-06-14T13:44:03;20.90;75.30
11426;DHT22;5769;47.998;7.788;2023-06-14T13:46:30;20.90;75.30
11426;DHT22;5769;47.998;7.788;2023-06-14T13:48:57;20.90;75.30
11426;DHT22;5769;47.998;7.788;2023-06-14T13:51:24;20.90;75.20
11426;DHT22;5769;47.998;7.788;2023-06-14T13:53:53;20.90;75.30
11426;DHT22;5769;47.998;7.788;2023-06-14T13:56:21;21.00;75.40
11426;DHT22;5769;47.998;7.788;2023-06-14T13:58:49;20.90;75.30
11426;DHT22;5769;47.998;7.788;2023-06-14T14:01:16;20.90;75.30
11426;DHT22;5769;47.998;7.788;2023-06-14T14:03:43;21.00;75.40
11426;DHT22;5769;47.998;7.788;2023-06-14T14:06:10;21.00;75.40
11426;DHT22;5769;47.998;7.788;2023-06-14T14:08:37;20.90;75.40
11426;DHT22;5769;47.998;7.788;2023-06-14T14:11:06;20.90;75.40
11426;DHT22;5769;47.998;7.788;2023-06-14T14:13:33;21.00;75.40
11426;DHT22;5769;47.998;7.788;2023-06-14T14:16:01;20.90;75.40
11426;DHT22;5769;47.998;7.788;2023-06-14T14:18:28;20.90;75.40
11426;DHT22;5769;47.998;7.788;2023-06-14T14:20:55;20.90;75.40
11426;DHT22;5769;47.998;7.788;2023-06-14T14:23:21;20.90;75.40
11426;DHT22;5769;47.998;7.788;2023-06-14T14:25:48;20.90;75.40
11426;DHT22;5769;47.998;7.788;2023-06-14T14:28:16;21.00;75.50
11426;DHT22;5769;47.998;7.788;2023-06-14T14:30:45;20.90;75.40
11426;DHT22;5769;47.998;7.788;2023-06-14T14:33:12;20.90;75.50
11426;DHT22;5769;47.998;7.788;2023-06-14T14:35:41;21.00;75.50
11426;DHT22;5769;47.998;7.788;2023-06-14T14:38:08;20.90;75.50
11426;DHT22;5769;47.998;7.788;2023-06-14T14:40:35;21.00;75.60
11426;DHT22;5769;47.998;7.788;2023-06-14T14:43:02;20.90;75.60
11426;DHT22;5769;47.998;7.788;2023-06-14T14:45:30;20.90;75.60
11426;DHT22;5769;47.998;7.788;2023-06-14T14:47:56;20.90;75.60
11426;DHT22;5769;47.998;7.788;2023-06-14T14:50:24;20.90;75.60
11426;DHT22;5769;47.998;7.788;2023-06-14T14:52:51;20.90;75.50
11426;DHT22;5769;47.998;7.788;2023-06-14T14:55:18;20.90;75.60
11426;DHT22;5769;47.998;7.788;2023-06-14T14:57:45;20.90;75.50
11426;DHT22;5769;47.998;7.788;2023-06-14T15:00:13;20.90;75.50
11426;DHT22;5769;47.998;7.788;2023-06-14T15:02:41;20.90;75.50
11426;DHT22;5769;47.998;7.788;2023-06-14T15:05:08;20.90;75.50
11426;DHT22;5769;47.998;7.788;2023-06-14T15:07:35;20.90;75.60
11426;DHT22;5769;47.998;7.788;2023-06-14T15:10:02;20.90;75.60
11426;DHT22;5769;47.998;7.788;2023-06-14T15:12:30;20.90;75.60
11426;DHT22;5769;47.998;7.788;2023-06-14T15:14:56;20.90;75.60
11426;DHT22;5769;47.998;7.788;2023-06-14T15:17:23;20.90;75.70
11426;DHT22;5769;47.998;7.788;2023-06-14T15:19:52;20.90;75.80
11426;DHT22;5769;47.998;7.788;2023-06-14T15:22:18;21.00;76.00
11426;DHT22;5769;47.998;7.788;2023-06-14T15:24:45;21.00;76.20
11426;DHT22;5769;47.998;7.788;2023-06-14T15:27:12;21.00;76.30
11426;DHT22;5769;47.998;7.788;2023-06-14T15:29:40;21.00;77.30
11426;DHT22;5769;47.998;7.788;2023-06-14T15:32:08;20.90;76.70
11426;DHT22;5769;47.998;7.788;2023-06-14T15:34:34;21.00;76.80
11426;DHT22;5769;47.998;7.788;2023-06-14T15:37:05;21.00;76.80
11426;DHT22;5769;47.998;7.788;2023-06-14T15:39:32;20.90;76.70
11426;DHT22;5769;47.998;7.788;2023-06-14T15:41:58;21.00;76.70
11426;DHT22;5769;47.998;7.788;2023-06-14T15:44:25;20.90;76.60
11426;DHT22;5769;47.998;7.788;2023-06-14T15:46:52;21.00;76.60
11426;DHT22;5769;47.998;7.788;2023-06-14T15:49:19;21.00;76.40
11426;DHT22;5769;47.998;7.788;2023-06-14T15:51:46;21.00;76.30
11426;DHT22;5769;47.998;7.788;2023-06-14T15:54:14;21.00;76.20